• Join FlightAware (Why Join?)
  • Login
  • US Flag 
04:10PM EDT


 

Airport Tracker/Info


-or-


 

Live Flight TrackerFlight Track Log ✈ EJA941 ✈ 13-Jan-2014 ✈ KSDF - KPBI

Flight Track Log - Related Links

Times and Time Zones

All times are in EST time to prevent confusion due to time zone crossing. See the EJA941 flight status page for this flight to view local times or setup timezone preferences in your user account.

Time Position Orientation Groundspeed Altitude Reporting Facility
EST Latitude Longitude Course Direction KTS MPH feet Rate Location/Type
10:35AM 38.1306 -85.7047 156° South 187 215 17,000  Level Indianapolis Center
10:36AM 38.0756 -85.6389 137° Southeast 296 341 8,600 -2,880 Descending Indianapolis Center
10:37AM 38.0817 -85.5100 87° East 364 419 11,200 2,580 Climbing Indianapolis Center
10:38AM 38.0464 -85.3719 108° East 416 479 14,000 3,000 Climbing Indianapolis Center
10:39AM 37.9542 -85.2831 143° Southeast 411 473 17,500 2,580 Climbing Indianapolis Center
10:40AM 37.6723 -85.4534 156° South  Level Estimated
10:40AM 37.8536 -85.2314 158° South 386 444 19,400  Level Indianapolis Center
10:41AM 37.5719 -85.3973 156° South  Level Estimated
10:41AM 37.7481 -85.1814 159° South 381 438 20,500  Level Indianapolis Center
10:42AM 37.6444 -85.1350 160° South 392 451 21,900 1,380 Climbing Indianapolis Center
10:43AM 37.5397 -85.0872 160° South 398 458 23,400 1,560 Climbing Indianapolis Center
10:44AM 37.4178 -85.0306 160° South 400 460 25,200 1,560 Climbing Indianapolis Center
10:45AM 37.3089 -84.9806 160° South 413 475 26,700 1,440 Climbing Indianapolis Center
10:46AM 37.1997 -84.9300 160° South 417 480 28,200 1,440 Climbing Indianapolis Center
10:47AM 37.0886 -84.8781 160° South 424 488 29,700 1,440 Climbing Indianapolis Center
10:48AM 36.9675 -84.8228 160° South 439 505 31,200 1,560 Climbing Indianapolis Center
10:49AM 36.8500 -84.7700 160° South 445 512 32,900 1,860 Climbing Indianapolis Center
10:50AM 36.7328 -84.7156 160° South 448 516 35,100 2,220 Climbing Indianapolis Center
10:52AM 36.6200 -84.6642 160° South 438 504 37,600 1,740 Climbing Indianapolis Center
10:53AM 36.5072 -84.6142 160° South 430 495 38,700 900 Climbing Indianapolis Center
10:54AM 36.3661 -84.5506 160° South 443 510 39,500 720 Climbing Indianapolis Center
10:55AM 36.2450 -84.4956 160° South 455 524 40,200 600 Climbing Indianapolis Center
10:56AM 36.1211 -84.4403 160° South 465 535 40,800 420 Climbing Indianapolis Center
10:56AM 36.0411 -84.4058 161° South 462 532 41,000 60 Climbing Atlanta Center
10:57AM 35.9119 -84.3464 160° South 481 554 41,000  Level Atlanta Center
10:58AM 35.7806 -84.2922 162° South 492 566 41,000  Level Atlanta Center
10:59AM 35.6492 -84.2331 160° South 497 572 41,000  Level Atlanta Center
11:00AM 35.5158 -84.1739 160° South 503 579 41,000  Level Atlanta Center
11:01AM 35.3803 -84.1153 161° South 503 579 41,000  Level Atlanta Center
11:02AM 35.2508 -84.0592 161° South 503 579 41,000  Level Atlanta Center
11:03AM 35.1153 -84.0006 161° South 508 585 41,000  Level Atlanta Center
11:04AM 34.9817 -83.9400 160° South 508 585 41,000  Level Atlanta Center
11:05AM 34.8336 -83.8717 159° South 508 585 41,000  Level Atlanta Center
11:06AM 34.6997 -83.8139 160° South 508 585 41,000  Level Atlanta Center
11:07AM 34.5661 -83.7589 161° South 508 585 41,000  Level Atlanta Center
11:08AM 34.4450 -83.7064 160° South 508 585 41,000 60 Level Atlanta Center
11:09AM 34.3092 -83.6489 161° South 513 590 41,200 420 Climbing Atlanta Center
11:10AM 34.1753 -83.5919 161° South 513 590 41,900 720 Climbing Atlanta Center
11:11AM 34.0458 -83.5375 161° South 502 578 42,700 540 Climbing Atlanta Center
11:12AM 33.9161 -83.4831 161° South 496 571 43,000 120 Climbing Atlanta Center
11:13AM 33.7739 -83.4264 162° South 496 571 43,000  Level Atlanta Center
11:14AM 33.6400 -83.3725 161° South 496 571 43,000  Level Atlanta Center
11:15AM 33.5103 -83.3189 161° South 501 577 43,000  Level Atlanta Center
11:16AM 33.3764 -83.2653 162° South 506 582 43,000  Level Atlanta Center
11:17AM 33.2425 -83.2092 161° South 507 583 43,000  Level Atlanta Center
11:18AM 33.1147 -83.1533 160° South 502 578 43,000  Level Atlanta Center
11:19AM 32.9975 -83.1050 161° South 496 571 43,000  Level Atlanta Center
11:20AM 32.8678 -83.0497 160° South 496 571 43,000  Level Atlanta Center
11:21AM 32.7378 -82.9967 161° South 496 571 43,000  Level Atlanta Center
11:22AM 32.6036 -82.9417 161° South 496 571 43,000  Level Atlanta Center
11:23AM 32.4717 -82.8867 161° South 501 577 43,000  Level Atlanta Center
11:25AM 32.2311 -82.7894 161° South 503 579 43,000  Level Jacksonville Center
11:26AM 32.1017 -82.7183 155° Southeast 503 579 43,000  Level Jacksonville Center
11:27AM 31.9722 -82.6428 154° Southeast 508 585 43,000  Level Jacksonville Center
11:28AM 31.8467 -82.5672 153° Southeast 515 593 43,000  Level Jacksonville Center
11:29AM 31.7150 -82.4897 153° Southeast 515 593 43,000  Level Jacksonville Center
11:30AM 31.5872 -82.4144 153° Southeast 510 587 43,000  Level Jacksonville Center
11:31AM 31.4556 -82.3397 154° Southeast 510 587 43,000  Level Jacksonville Center
11:32AM 31.3278 -82.2675 154° Southeast 510 587 43,000  Level Jacksonville Center
11:33AM 31.1978 -82.1931 154° Southeast 510 587 43,000  Level Jacksonville Center
11:34AM 31.0700 -82.1164 153° Southeast 510 587 43,000  Level Jacksonville Center
11:35AM 30.9381 -82.0425 154° Southeast 510 587 43,000  Level Jacksonville Center
11:36AM 30.8081 -81.9661 153° Southeast 510 587 43,000  Level Jacksonville Center
11:37AM 30.6803 -81.8925 154° Southeast 510 587 43,000  Level Jacksonville Center
11:38AM 30.5458 -81.8094 152° Southeast 510 587 43,000  Level Jacksonville Center
11:39AM 30.4158 -81.7364 154° Southeast 529 609 43,000 -60 Level Jacksonville Center
11:40AM 30.2961 -81.6656 153° Southeast 529 609 42,900  Descending Jacksonville Center
11:41AM 30.1639 -81.5953 155° Southeast 529 609 43,000  Climbing Jacksonville Center
11:42AM 30.0294 -81.5228 155° Southeast 529 609 43,000  Level Jacksonville Center
11:43AM 29.8972 -81.4478 154° Southeast 529 609 43,000  Level Jacksonville Center
11:44AM 29.7647 -81.3756 155° Southeast 529 609 43,000  Level Jacksonville Center
11:45AM 29.6325 -81.3014 154° Southeast 529 609 43,000 -60 Level Jacksonville Center
11:46AM 29.4978 -81.2294 155° Southeast 529 609 42,900 -600 Descending Jacksonville Center
11:47AM 29.3653 -81.1508 153° Southeast 529 609 41,900 -1,200 Descending Jacksonville Center
11:48AM 29.2489 -81.0386 140° Southeast 544 626 40,600 -1,440 Descending Jacksonville Center
11:49AM 29.1486 -80.9003 130° Southeast 544 626 39,100 -1,920 Descending Jacksonville Center
11:50AM 29.0083 -80.7128 131° Southeast 548 631 36,000 -1,320 Descending Miami Center
11:51AM 28.8822 -80.5944 141° Southeast 542 624 36,000  Level Miami Center
11:52AM 28.7606 -80.5383 158° South 524 603 36,000 -300 Level Miami Center
11:53AM 28.6283 -80.4844 160° South 516 594 35,400 -1,680 Descending Miami Center
11:54AM 28.4817 -80.4300 162° South 504 580 32,700 -2,220 Descending Miami Center
11:55AM 28.3408 -80.3900 166° South 511 588 31,000 -1,620 Descending Miami Center
11:56AM 28.1975 -80.3572 169° South 523 602 29,500 -1,800 Descending Miami Center
11:57AM 28.0753 -80.3231 166° South 518 596 27,400 -2,580 Descending Miami Center
11:58AM 27.9425 -80.2906 168° South 501 577 24,400 -3,000 Descending Miami Center
11:59AM 27.8158 -80.2586 167° South 481 554 21,400 -3,000 Descending Miami Center
12:00PM 27.6933 -80.2317 169° South 463 533 18,500 -2,880 Descending Miami Center
12:01PM 27.5667 -80.1975 167° South 450 518 15,700 -2,580 Descending Miami Center
12:02PM 27.4753 -80.1736 167° South 406 467 13,400 -2,280 Descending Miami Center
12:03PM 27.3819 -80.1522 168° South 366 421 11,200 -1,980 Descending Miami Center
12:04PM 27.2925 -80.1358 171° South 314 361 9,500 -1,800 Descending Miami Center
12:05PM 27.2178 -80.1125 164° South 285 328 7,600 -1,740 Descending Miami Center
12:06PM 27.1475 -80.0828 159° South 275 316 6,100 -1,020 Descending Miami Center
12:07PM 27.0856 -80.0506 155° Southeast 275 316 5,600 -900 Descending Miami Center
12:08PM 27.0092 -80.0136 157° South 275 316 4,300 -840 Descending Miami Center
12:09PM 26.9422 -80.0142 180° South 252 290 4,000 -180 Descending Miami Center
12:10PM 26.8872 -80.0522 212° Southwest 231 266 4,000 -600 Level Miami Center
12:11PM 26.8383 -80.0906 215° Southwest 241 277 2,800 -1,200 Descending Miami Center
12:13PM 26.7936 -80.2070 265° West  Level FlightAware Approximate
12:20PM 26.6832 -80.0956 110° East  Level Estimated
12:21PM 26.6832 -80.0956 110° East  Level Estimated
12:22PM 26.6832 -80.0956 110° East  Level Estimated
12:23PM 26.6832 -80.0956 110° East  Level Estimated
12:24PM 26.6832 -80.0956 110° East  Level Estimated